Time;durP1;ratioP1;P1;durP2;ratioP2;P2;SDS_P1;SDS_P2;PMS_P1;PMS_P2;Temp;Humidity;BMP_temperature;BMP_pressure;BME280_temperature;BME280_humidity;BME280_pressure;Samples;Min_cycle;Max_cycle;Signal;HPM_P1;HPM_P2
2023/10/01 00:00:46;;;;;;;11.70;5.63;;;17.10;99.90;;;;;;5000578;28;20030;-73
2023/10/01 00:03:14;;;;;;;7.25;4.80;;;17.00;99.90;;;;;;5006728;28;20029;-73
2023/10/01 00:05:40;;;;;;;9.07;4.72;;;17.00;99.90;;;;;;4997016;28;20483;-75
2023/10/01 00:08:08;;;;;;;6.63;4.57;;;17.00;99.90;;;;;;4995089;28;20121;-72
2023/10/01 00:10:34;;;;;;;7.20;4.63;;;17.00;99.90;;;;;;4996607;28;20476;-72
2023/10/01 00:13:00;;;;;;;8.63;4.97;;;17.00;99.90;;;;;;4997274;28;20041;-74
2023/10/01 00:15:27;;;;;;;8.38;5.13;;;16.80;99.90;;;;;;4992538;28;20057;-71
2023/10/01 00:17:53;;;;;;;9.35;5.20;;;16.60;99.90;;;;;;4987541;28;20444;-73
2023/10/01 00:20:23;;;;;;;10.80;5.30;;;16.70;99.90;;;;;;4997377;28;20089;-71
2023/10/01 00:22:57;;;;;;;10.55;6.38;;;16.80;99.90;;;;;;4989226;28;20072;-72
2023/10/01 00:25:23;;;;;;;8.30;4.93;;;17.10;99.90;;;;;;4996655;28;20368;-72
2023/10/01 00:27:50;;;;;;;7.97;4.90;;;17.00;99.90;;;;;;4996574;28;20033;-71
2023/10/01 00:30:16;;;;;;;11.88;5.15;;;17.00;99.90;;;;;;4992466;28;20025;-71
2023/10/01 00:32:42;;;;;;;7.75;4.88;;;17.00;99.90;;;;;;4993385;28;20038;-72
2023/10/01 00:35:11;;;;;;;7.88;5.18;;;16.80;99.90;;;;;;5000308;28;20030;-72
2023/10/01 00:37:38;;;;;;;9.48;4.75;;;16.70;99.90;;;;;;4993986;28;20033;-71
2023/10/01 00:40:05;;;;;;;8.68;5.10;;;16.70;99.90;;;;;;4989308;28;20022;-72
2023/10/01 00:42:33;;;;;;;9.80;5.57;;;16.70;99.90;;;;;;4994938;28;20073;-72
2023/10/01 00:44:59;;;;;;;8.85;5.53;;;16.80;99.90;;;;;;4997121;28;20060;-71
2023/10/01 00:47:30;;;;;;;7.25;4.80;;;16.80;99.90;;;;;;4991162;28;20112;-72
2023/10/01 00:49:57;;;;;;;9.07;5.45;;;16.70;99.90;;;;;;4997072;28;20146;-70
2023/10/01 00:52:23;;;;;;;8.65;5.13;;;16.70;99.90;;;;;;4992553;28;20040;-72
2023/10/01 00:54:54;;;;;;;7.90;4.80;;;16.60;99.90;;;;;;4995404;28;20115;-72
2023/10/01 00:57:21;;;;;;;9.27;5.65;;;16.70;99.90;;;;;;4988211;28;20489;-72
2023/10/01 00:59:48;;;;;;;8.38;5.32;;;16.80;99.90;;;;;;4997959;28;20058;-72
2023/10/01 01:02:17;;;;;;;11.93;5.07;;;16.70;99.90;;;;;;4993771;28;20030;-71
2023/10/01 01:04:47;;;;;;;7.40;5.10;;;16.70;99.90;;;;;;4988057;28;20030;-71
2023/10/01 01:07:19;;;;;;;10.80;4.90;;;16.60;99.90;;;;;;4989972;28;20038;-72
2023/10/01 01:09:46;;;;;;;10.73;5.07;;;16.70;99.90;;;;;;5006032;28;20080;-71
2023/10/01 01:12:13;;;;;;;7.93;5.15;;;16.50;99.90;;;;;;4991113;28;20057;-72
2023/10/01 01:14:45;;;;;;;11.25;6.32;;;16.50;99.90;;;;;;4992914;28;20126;-71
2023/10/01 01:17:11;;;;;;;8.25;5.45;;;16.40;99.90;;;;;;5001960;28;20037;-71
2023/10/01 01:19:38;;;;;;;8.63;5.43;;;16.30;99.90;;;;;;5000167;28;20463;-72
2023/10/01 01:22:04;;;;;;;10.88;5.43;;;16.20;99.90;;;;;;4992501;28;20081;-71
2023/10/01 01:24:30;;;;;;;7.60;5.28;;;16.10;99.90;;;;;;4998006;28;20037;-72
2023/10/01 01:27:00;;;;;;;7.95;5.47;;;16.10;99.90;;;;;;4996575;28;20026;-72
2023/10/01 01:29:33;;;;;;;9.15;5.55;;;16.20;99.90;;;;;;4993707;28;20626;-71
2023/10/01 01:32:07;;;;;;;9.70;5.32;;;16.30;99.90;;;;;;4997729;28;20137;-73
2023/10/01 01:34:37;;;;;;;11.70;5.97;;;16.10;99.90;;;;;;4999852;28;20249;-72
2023/10/01 01:37:05;;;;;;;8.75;5.72;;;16.20;99.90;;;;;;4999298;28;20034;-72
2023/10/01 01:39:50;;;;;;;13.82;5.78;;;16.10;99.90;;;;;;4998602;28;20030;-72
2023/10/01 01:42:19;;;;;;;18.48;5.82;;;16.10;99.90;;;;;;4999274;28;20057;-72
2023/10/01 01:44:47;;;;;;;9.30;5.22;;;16.20;99.90;;;;;;5005151;28;20029;-72
2023/10/01 01:47:17;;;;;;;9.38;6.07;;;16.20;99.90;;;;;;4999362;28;20469;-73
2023/10/01 01:49:43;;;;;;;9.98;5.65;;;16.20;99.90;;;;;;5008049;28;20453;-72
2023/10/01 01:52:10;;;;;;;9.25;5.60;;;16.20;99.90;;;;;;5001142;28;20029;-73
2023/10/01 01:54:39;;;;;;;9.93;5.05;;;16.30;99.90;;;;;;5002082;28;20057;-73
2023/10/01 01:57:13;;;;;;;9.45;5.65;;;16.10;99.90;;;;;;4994781;28;20361;-73
2023/10/01 01:59:41;;;;;;;8.32;5.60;;;16.00;99.90;;;;;;4999194;28;20515;-72
2023/10/01 02:02:09;;;;;;;9.95;5.72;;;15.90;99.90;;;;;;4998277;28;20480;-74
2023/10/01 02:04:58;;;;;;;10.73;5.47;;;15.80;99.90;;;;;;5007125;28;20022;-73
2023/10/01 02:07:24;;;;;;;10.35;6.28;;;16.10;99.90;;;;;;4996980;28;20030;-74
2023/10/01 02:09:51;;;;;;;8.70;5.10;;;16.10;99.90;;;;;;4991250;28;20026;-73
2023/10/01 02:12:23;;;;;;;9.25;5.63;;;16.00;99.90;;;;;;4989763;28;20073;-73
2023/10/01 02:14:54;;;;;;;12.57;6.00;;;15.90;99.90;;;;;;5005202;28;20080;-72
2023/10/01 02:17:22;;;;;;;10.57;6.10;;;15.80;99.90;;;;;;4999833;28;20026;-72
2023/10/01 02:19:48;;;;;;;10.15;5.70;;;15.70;99.90;;;;;;5002471;28;20088;-73
2023/10/01 02:22:16;;;;;;;9.10;5.57;;;15.70;99.90;;;;;;5009296;28;20472;-73
2023/10/01 02:27:09;;;;;;;10.32;6.50;;;15.60;99.90;;;;;;4993078;28;20069;-74
2023/10/01 02:29:45;;;;;;;10.82;5.97;;;15.60;99.90;;;;;;4999941;28;20088;-72
2023/10/01 02:32:14;;;;;;;7.88;5.40;;;15.70;99.90;;;;;;5002520;28;20125;-72
2023/10/01 02:34:43;;;;;;;9.82;5.53;;;15.80;99.90;;;;;;5003141;28;20026;-73
2023/10/01 02:37:10;;;;;;;10.15;7.10;;;15.80;99.90;;;;;;4993844;28;20380;-73
2023/10/01 02:39:37;;;;;;;8.95;5.93;;;15.80;99.90;;;;;;4997442;28;20026;-72
2023/10/01 02:44:47;;;;;;;12.70;5.90;;;15.60;99.90;;;;;;4997923;28;20081;-73
2023/10/01 02:47:16;;;;;;;8.85;5.25;;;15.60;99.90;;;;;;4995355;28;20025;-73
2023/10/01 02:49:49;;;;;;;9.88;6.05;;;15.60;99.90;;;;;;5002435;28;20038;-72
2023/10/01 02:52:25;;;;;;;11.33;5.90;;;15.60;99.90;;;;;;4992766;28;20030;-73
2023/10/01 02:54:57;;;;;;;10.07;5.72;;;15.60;99.90;;;;;;4997495;28;20030;-72
2023/10/01 02:57:24;;;;;;;9.93;5.95;;;15.60;99.90;;;;;;4996652;28;20132;-72
2023/10/01 03:02:39;;;;;;;10.00;6.13;;;15.70;99.90;;;;;;4989447;28;20038;-73
2023/10/01 03:05:08;;;;;;;8.18;5.20;;;15.50;99.90;;;;;;4987491;28;20037;-73
2023/10/01 03:07:40;;;;;;;8.32;5.38;;;15.60;99.90;;;;;;5000760;28;20121;-73
2023/10/01 03:12:50;;;;;;;8.73;5.78;;;15.30;99.90;;;;;;4989006;28;20156;-73
2023/10/01 03:15:23;;;;;;;9.90;6.05;;;15.20;99.90;;;;;;4984528;28;20030;-73
2023/10/01 03:17:56;;;;;;;15.35;6.05;;;15.20;99.90;;;;;;4992353;28;20022;-73
2023/10/01 03:23:29;;;;;;;10.27;6.15;;;15.40;99.90;;;;;;4991077;28;20041;-73
2023/10/01 03:26:07;;;;;;;10.85;5.75;;;15.50;99.90;;;;;;4994851;28;20038;-73
2023/10/01 03:31:25;;;;;;;12.15;4.90;;;15.30;99.90;;;;;;4996102;28;20389;-72
2023/10/01 03:33:54;;;;;;;11.63;5.63;;;15.20;99.90;;;;;;4994317;28;20076;-72
2023/10/01 03:36:25;;;;;;;10.77;6.30;;;15.10;99.90;;;;;;4992190;28;20038;-72
2023/10/01 03:38:57;;;;;;;9.52;5.80;;;15.30;99.90;;;;;;4994395;28;20038;-73
2023/10/01 03:41:24;;;;;;;9.95;5.25;;;15.50;99.90;;;;;;4989491;28;20462;-73
2023/10/01 03:43:55;;;;;;;9.43;5.60;;;15.50;99.90;;;;;;4994777;28;20639;-73
2023/10/01 03:46:26;;;;;;;8.27;4.80;;;15.60;99.90;;;;;;4985389;28;20109;-73
2023/10/01 03:54:21;;;;;;;8.68;5.20;;;15.40;99.90;;;;;;4996125;28;20400;-73
2023/10/01 03:56:58;;;;;;;7.78;5.32;;;15.30;99.90;;;;;;4986186;28;20173;-73
2023/10/01 03:59:32;;;;;;;9.05;5.55;;;15.10;99.90;;;;;;4997275;28;20054;-73
2023/10/01 04:01:58;;;;;;;9.73;5.25;;;15.10;99.90;;;;;;4989840;28;20129;-73
2023/10/01 04:04:31;;;;;;;9.02;5.38;;;15.00;99.90;;;;;;4982316;28;20124;-73
2023/10/01 04:07:10;;;;;;;10.18;6.22;;;15.00;99.90;;;;;;4989206;28;20077;-72
2023/10/01 04:09:45;;;;;;;10.35;6.13;;;14.90;99.90;;;;;;4992913;28;20103;-73
2023/10/01 04:12:27;;;;;;;8.27;6.05;;;15.00;99.90;;;;;;4998803;28;20026;-72
2023/10/01 04:14:53;;;;;;;7.00;4.85;;;15.20;99.90;;;;;;4992727;28;20477;-73
2023/10/01 04:17:20;;;;;;;8.93;5.53;;;15.30;99.90;;;;;;4994511;28;20041;-73
2023/10/01 04:19:53;;;;;;;7.90;5.03;;;15.30;99.90;;;;;;4995950;28;20034;-73
2023/10/01 04:22:21;;;;;;;7.57;4.70;;;15.20;99.90;;;;;;4993554;28;20440;-73
2023/10/01 04:25:00;;;;;;;10.05;5.25;;;15.30;99.90;;;;;;4994911;28;20053;-73
2023/10/01 04:27:30;;;;;;;9.63;5.45;;;15.20;99.90;;;;;;4989704;28;20519;-72
2023/10/01 04:30:00;;;;;;;8.25;5.32;;;15.10;99.90;;;;;;5000004;28;20030;-72
2023/10/01 04:32:27;;;;;;;9.88;5.25;;;15.20;99.90;;;;;;4985400;28;20465;-72
2023/10/01 04:34:54;;;;;;;8.30;5.18;;;15.10;99.90;;;;;;4993709;28;20030;-72
2023/10/01 04:37:36;;;;;;;8.20;4.80;;;14.90;99.90;;;;;;4996466;28;20037;-73
2023/10/01 04:40:06;;;;;;;7.88;5.40;;;15.00;99.90;;;;;;4994872;28;20026;-73
2023/10/01 04:42:32;;;;;;;8.52;4.70;;;14.90;99.90;;;;;;4991606;28;20472;-73
2023/10/01 04:44:59;;;;;;;9.70;5.15;;;14.90;99.90;;;;;;4992212;28;20092;-72
2023/10/01 04:47:30;;;;;;;7.88;5.50;;;15.00;99.90;;;;;;4988429;28;20030;-73
2023/10/01 04:49:57;;;;;;;8.43;5.60;;;15.00;99.90;;;;;;4990064;28;20034;-72
2023/10/01 04:52:24;;;;;;;9.40;5.38;;;15.00;99.90;;;;;;4993525;28;20093;-74
2023/10/01 04:54:50;;;;;;;8.00;5.50;;;15.10;99.90;;;;;;4992641;28;20110;-72
2023/10/01 04:57:16;;;;;;;9.23;4.75;;;14.90;99.90;;;;;;4994977;28;20101;-71
2023/10/01 04:59:56;;;;;;;10.45;6.00;;;14.80;99.90;;;;;;4971843;28;20129;-72
2023/10/01 05:02:23;;;;;;;9.40;5.88;;;14.70;99.90;;;;;;4997801;28;20554;-73
2023/10/01 05:04:48;;;;;;;7.60;5.15;;;14.80;99.90;;;;;;5002414;28;20389;-72
2023/10/01 05:07:15;;;;;;;8.88;5.82;;;14.80;99.90;;;;;;4992649;28;20045;-72
2023/10/01 05:09:43;;;;;;;8.75;5.25;;;14.80;99.90;;;;;;4992191;28;20101;-73
2023/10/01 05:12:11;;;;;;;8.73;5.20;;;14.80;99.90;;;;;;5005146;28;20528;-72
2023/10/01 05:14:56;;;;;;;7.53;5.45;;;14.80;99.90;;;;;;4990473;28;20160;-72
2023/10/01 05:17:22;;;;;;;12.52;5.25;;;14.80;99.90;;;;;;4984822;28;20030;-72
2023/10/01 05:19:47;;;;;;;7.53;4.72;;;14.70;99.90;;;;;;4983093;28;20038;-73
2023/10/01 05:22:13;;;;;;;8.93;4.70;;;14.90;99.90;;;;;;4998561;28;20072;-72
2023/10/01 05:24:41;;;;;;;10.60;6.38;;;14.90;99.90;;;;;;4993456;28;20463;-73
2023/10/01 05:27:18;;;;;;;7.10;4.72;;;14.70;99.90;;;;;;4990622;28;20037;-73
2023/10/01 05:29:45;;;;;;;8.65;5.20;;;14.60;99.90;;;;;;4998712;28;20030;-72
2023/10/01 05:32:17;;;;;;;9.60;4.95;;;14.50;99.90;;;;;;4986150;28;20026;-73
2023/10/01 05:34:46;;;;;;;11.65;5.55;;;14.50;99.90;;;;;;4992034;28;20022;-72
2023/10/01 05:37:20;;;;;;;7.10;4.63;;;14.40;99.90;;;;;;4979065;28;20067;-72
2023/10/01 05:39:55;;;;;;;;;;;14.40;99.90;;;;;;4994461;28;20034;-72
2023/10/01 05:42:28;;;;;;;11.63;5.82;;;14.50;99.90;;;;;;5001271;28;20011;-73
2023/10/01 05:44:55;;;;;;;9.60;5.13;;;14.60;99.90;;;;;;4984836;28;20034;-74
2023/10/01 05:47:22;;;;;;;10.50;5.53;;;14.70;99.90;;;;;;4988358;28;20033;-74
2023/10/01 05:49:49;;;;;;;8.30;4.75;;;14.70;99.90;;;;;;4992603;28;20036;-73
2023/10/01 05:52:18;;;;;;;8.30;5.25;;;14.70;99.90;;;;;;4996357;28;20083;-73
2023/10/01 05:54:52;;;;;;;9.35;5.38;;;14.90;99.90;;;;;;4985293;28;20042;-74
2023/10/01 05:57:21;;;;;;;6.10;4.30;;;15.00;99.90;;;;;;4991556;28;20064;-73
2023/10/01 05:59:56;;;;;;;8.70;5.32;;;15.00;99.90;;;;;;4986179;28;20065;-73
2023/10/01 06:05:33;;;;;;;7.70;5.40;;;14.80;99.90;;;;;;4970770;28;20189;-73
2023/10/01 06:08:12;;;;;;;8.73;4.93;;;14.70;99.90;;;;;;4987784;28;20840;-73
2023/10/01 06:10:59;;;;;;;10.38;4.45;;;14.70;99.90;;;;;;4993465;28;20076;-74
2023/10/01 06:13:29;;;;;;;7.60;4.45;;;14.90;99.90;;;;;;4995658;28;20050;-73
2023/10/01 06:16:03;;;;;;;10.15;5.55;;;14.90;99.90;;;;;;4985962;28;20038;-73
2023/10/01 06:18:41;;;;;;;8.50;5.00;;;15.10;99.90;;;;;;4994350;28;20017;-74
2023/10/01 06:21:10;;;;;;;10.40;4.53;;;15.10;99.90;;;;;;4994681;28;20072;-72
2023/10/01 06:23:52;;;;;;;7.95;5.15;;;15.10;99.90;;;;;;4994301;28;20069;-72
2023/10/01 06:26:22;;;;;;;7.30;4.85;;;15.20;99.90;;;;;;4987918;28;20021;-73
2023/10/01 06:28:51;;;;;;;6.75;4.57;;;15.30;99.90;;;;;;4994301;28;20030;-72
2023/10/01 06:31:20;;;;;;;7.75;4.70;;;15.20;99.90;;;;;;4989511;28;20905;-73
2023/10/01 06:33:46;;;;;;;8.68;4.90;;;15.40;99.90;;;;;;4991621;28;20598;-73
2023/10/01 06:36:16;;;;;;;7.65;4.47;;;15.40;99.90;;;;;;4999098;28;20031;-74
2023/10/01 06:38:45;;;;;;;8.13;4.97;;;15.40;99.90;;;;;;4995039;28;20069;-73
2023/10/01 06:41:19;;;;;;;9.50;4.65;;;15.40;99.90;;;;;;4988974;28;20506;-73
2023/10/01 06:43:54;;;;;;;6.07;4.35;;;15.30;99.90;;;;;;4989920;28;20036;-73
2023/10/01 06:46:27;;;;;;;8.30;4.82;;;15.30;99.90;;;;;;4993285;28;20026;-73
2023/10/01 06:48:56;;;;;;;6.68;4.18;;;15.40;99.90;;;;;;4991274;28;20076;-72
2023/10/01 06:51:24;;;;;;;8.48;4.47;;;15.30;99.90;;;;;;4993038;28;20033;-72
2023/10/01 06:53:58;;;;;;;9.48;5.03;;;15.20;99.90;;;;;;4993742;28;20029;-72
2023/10/01 06:56:26;;;;;;;9.52;4.53;;;15.20;99.90;;;;;;4995839;28;20037;-73
2023/10/01 06:59:12;;;;;;;7.18;4.60;;;15.20;99.90;;;;;;4995461;28;20129;-73
2023/10/01 07:01:42;;;;;;;9.20;5.18;;;15.40;99.90;;;;;;4993372;28;20553;-73
2023/10/01 07:04:11;;;;;;;9.85;4.50;;;15.40;99.90;;;;;;4991809;28;20022;-73
2023/10/01 07:06:39;;;;;;;10.90;5.32;;;15.40;99.90;;;;;;4988644;28;20033;-73
2023/10/01 07:09:24;;;;;;;7.43;5.15;;;15.40;99.90;;;;;;4989325;28;20068;-72
2023/10/01 07:11:51;;;;;;;9.98;5.22;;;15.50;99.90;;;;;;4989553;28;20030;-72
2023/10/01 07:14:30;;;;;;;8.65;4.50;;;15.60;99.90;;;;;;4990259;28;20022;-72
2023/10/01 07:16:57;;;;;;;7.35;4.60;;;15.60;99.90;;;;;;4985160;28;20030;-72
2023/10/01 07:19:23;;;;;;;6.82;4.60;;;15.70;99.90;;;;;;4988347;28;20026;-72
2023/10/01 07:21:56;;;;;;;7.72;4.88;;;15.70;99.90;;;;;;4987125;28;20113;-72
2023/10/01 07:24:31;;;;;;;7.75;5.00;;;15.50;99.90;;;;;;4986844;28;20034;-72
2023/10/01 07:27:03;;;;;;;8.23;4.30;;;15.40;99.90;;;;;;4990483;28;20528;-72
2023/10/01 07:29:31;;;;;;;7.95;5.07;;;15.40;99.90;;;;;;4987517;28;20076;-72
2023/10/01 07:31:58;;;;;;;7.47;5.03;;;15.30;99.90;;;;;;4991745;28;20165;-72
2023/10/01 07:34:26;;;;;;;7.93;5.28;;;15.50;99.90;;;;;;4987471;28;20022;-72
2023/10/01 07:36:54;;;;;;;7.80;5.18;;;15.60;99.90;;;;;;4989023;28;20026;-72
2023/10/01 07:39:21;;;;;;;8.32;5.05;;;15.60;99.90;;;;;;4988709;28;20116;-72
2023/10/01 07:41:48;;;;;;;7.20;5.03;;;15.60;99.90;;;;;;4985286;28;20105;-73
2023/10/01 07:44:15;;;;;;;7.53;5.20;;;15.60;99.90;;;;;;4986897;28;20060;-72
2023/10/01 07:46:43;;;;;;;7.22;4.72;;;15.70;99.90;;;;;;4987448;28;20086;-71
2023/10/01 07:49:09;;;;;;;7.85;5.18;;;15.80;99.90;;;;;;4986978;28;20062;-71
2023/10/01 07:51:44;;;;;;;6.88;4.47;;;15.90;99.90;;;;;;4992883;28;20068;-73
2023/10/01 07:54:10;;;;;;;8.63;4.13;;;15.80;99.90;;;;;;4986742;28;20077;-72
2023/10/01 07:56:48;;;;;;;6.95;5.18;;;15.90;99.90;;;;;;4988630;28;20084;-75
2023/10/01 07:59:28;;;;;;;13.90;5.57;;;16.00;99.90;;;;;;4984441;28;20042;-73
2023/10/01 08:07:17;;;;;;;9.07;7.00;;;16.20;99.90;;;;;;4985580;28;20496;-72
2023/10/01 08:09:52;;;;;;;8.73;5.10;;;16.20;99.90;;;;;;4989651;28;20030;-73
2023/10/01 08:12:29;;;;;;;6.68;4.22;;;16.30;99.90;;;;;;5003457;28;20037;-73
2023/10/01 08:17:43;;;;;;;9.55;4.20;;;16.30;99.90;;;;;;4986411;28;20210;-72
2023/10/01 08:20:30;;;;;;;7.80;4.00;;;16.30;99.90;;;;;;4990228;28;20050;-72
2023/10/01 08:23:22;;;;;;;8.85;5.55;;;16.40;99.90;;;;;;4996271;28;20045;-73
2023/10/01 08:25:51;;;;;;;8.63;4.97;;;16.50;99.90;;;;;;4989753;28;20059;-73
2023/10/01 08:31:01;;;;;;;6.97;4.60;;;16.70;99.90;;;;;;5002745;28;21023;-72
2023/10/01 08:33:32;;;;;;;9.70;5.10;;;16.80;99.90;;;;;;4993190;28;20030;-72
2023/10/01 08:36:14;;;;;;;8.23;4.30;;;16.80;99.90;;;;;;4999566;28;20030;-73
2023/10/01 08:39:20;;;;;;;14.25;5.18;;;16.70;99.90;;;;;;5005069;28;20408;-73
2023/10/01 08:41:50;;;;;;;7.30;4.03;;;16.80;99.90;;;;;;5002927;28;20053;-73
2023/10/01 08:44:20;;;;;;;6.70;3.78;;;17.00;99.90;;;;;;4986604;28;20023;-73
2023/10/01 08:46:47;;;;;;;6.00;3.72;;;17.10;99.90;;;;;;4984694;28;20026;-73
2023/10/01 08:49:23;;;;;;;9.43;3.75;;;17.20;99.90;;;;;;4980863;28;20030;-73
2023/10/01 08:51:53;;;;;;;12.80;4.75;;;17.20;99.90;;;;;;4997306;28;20057;-72
2023/10/01 08:54:25;;;;;;;7.40;4.30;;;17.30;99.90;;;;;;4987652;28;20030;-72
2023/10/01 08:56:52;;;;;;;7.50;4.38;;;17.30;99.90;;;;;;4982603;28;20030;-73
2023/10/01 08:59:26;;;;;;;7.07;4.22;;;17.40;99.90;;;;;;4984648;28;20121;-73
2023/10/01 09:01:55;;;;;;;10.77;7.38;;;17.50;99.90;;;;;;4986532;28;20133;-73
2023/10/01 09:04:44;;;;;;;8.85;6.03;;;17.50;99.90;;;;;;4991437;28;20080;-73
2023/10/01 09:07:20;;;;;;;10.27;6.18;;;17.60;99.90;;;;;;4987660;28;20034;-73
2023/10/01 09:10:17;;;;;;;8.90;4.75;;;17.70;99.90;;;;;;4995414;28;20029;-72
2023/10/01 09:12:46;;;;;;;17.05;6.18;;;17.80;99.90;;;;;;4988365;28;20054;-73
2023/10/01 09:15:38;;;;;;;10.88;4.03;;;17.80;99.90;;;;;;5005344;28;20160;-73
2023/10/01 09:18:11;;;;;;;9.20;4.68;;;17.80;99.90;;;;;;4993680;28;20026;-72
2023/10/01 09:20:39;;;;;;;8.98;5.28;;;18.00;99.90;;;;;;5007304;28;20080;-73
2023/10/01 09:23:05;;;;;;;8.13;4.25;;;18.00;99.90;;;;;;4995807;28;20101;-73
2023/10/01 09:25:34;;;;;;;8.65;4.53;;;18.20;99.90;;;;;;4988544;28;20026;-73
2023/10/01 09:28:43;;;;;;;11.35;4.93;;;18.20;99.90;;;;;;4986331;28;20113;-74
2023/10/01 09:30:57;;;;;;;7.57;4.57;;;18.30;99.90;;;;;;4981726;28;20129;-73
2023/10/01 09:33:24;;;;;;;8.30;4.95;;;18.40;99.90;;;;;;4993842;28;20030;-74
2023/10/01 09:35:56;;;;;;;6.53;3.90;;;18.50;99.90;;;;;;4992873;28;20033;-72
2023/10/01 09:38:27;;;;;;;8.45;4.57;;;18.60;99.90;;;;;;5003138;28;20030;-72
2023/10/01 09:40:54;;;;;;;6.60;4.13;;;18.60;99.90;;;;;;5003884;28;20074;-73
2023/10/01 09:43:33;;;;;;;12.27;4.70;;;18.70;99.90;;;;;;4997540;28;20030;-72
2023/10/01 09:46:06;;;;;;;7.50;4.70;;;18.70;99.90;;;;;;4992841;28;20033;-73
2023/10/01 09:48:36;;;;;;;7.28;4.63;;;18.90;99.90;;;;;;5008725;28;20459;-73
2023/10/01 09:51:15;;;;;;;10.30;4.93;;;19.10;99.90;;;;;;5010436;28;20034;-72
2023/10/01 09:53:55;;;;;;;9.15;4.68;;;19.10;99.90;;;;;;5002441;28;20021;-72
2023/10/01 09:56:30;;;;;;;8.18;4.90;;;19.00;99.90;;;;;;4991274;28;20034;-73
2023/10/01 09:59:01;;;;;;;6.82;3.92;;;19.10;99.90;;;;;;4998334;28;20481;-73
2023/10/01 10:01:27;;;;;;;10.43;5.18;;;19.20;99.90;;;;;;4991154;28;20038;-73
2023/10/01 10:04:01;;;;;;;10.30;5.07;;;19.20;99.90;;;;;;4991821;28;20382;-73
2023/10/01 10:06:29;;;;;;;8.88;5.45;;;19.50;99.90;;;;;;4996657;28;20091;-72
2023/10/01 10:09:04;;;;;;;7.97;4.63;;;19.50;99.90;;;;;;4995682;28;20050;-73
2023/10/01 10:11:38;;;;;;;10.75;5.18;;;19.70;99.90;;;;;;5003449;28;20026;-73
2023/10/01 10:14:28;;;;;;;7.13;4.40;;;19.50;99.90;;;;;;5006666;28;20533;-73
2023/10/01 10:17:38;;;;;;;15.68;4.10;;;19.60;99.90;;;;;;5016328;28;20041;-73
2023/10/01 10:23:13;;;;;;;7.68;4.57;;;19.90;99.90;;;;;;5004691;28;20184;-73
2023/10/01 10:25:43;;;;;;;13.25;5.63;;;20.20;99.90;;;;;;5009102;28;20903;-73
2023/10/01 10:28:09;;;;;;;10.13;5.35;;;20.50;99.90;;;;;;5007579;28;20045;-72
2023/10/01 10:30:41;;;;;;;7.72;5.05;;;20.50;99.90;;;;;;4994840;28;20489;-72
2023/10/01 10:33:19;;;;;;;10.77;4.97;;;20.40;99.90;;;;;;4993845;28;20026;-74
2023/10/01 10:35:51;;;;;;;8.68;4.68;;;20.40;99.90;;;;;;5009895;28;20472;-73
2023/10/01 10:38:51;;;;;;;11.10;5.70;;;20.50;99.90;;;;;;5008639;28;20057;-73
2023/10/01 10:41:17;;;;;;;10.38;4.55;;;20.50;99.90;;;;;;5005975;28;20064;-72
2023/10/01 10:44:08;;;;;;;8.13;4.90;;;20.60;99.90;;;;;;5006816;28;20748;-72
2023/10/01 10:47:02;;;;;;;10.90;5.55;;;20.60;99.90;;;;;;5004878;28;20037;-72
2023/10/01 10:50:11;;;;;;;8.02;4.63;;;20.60;99.90;;;;;;4997895;28;20034;-72
2023/10/01 10:52:37;;;;;;;7.78;4.72;;;20.80;99.90;;;;;;4962492;28;20030;-73
2023/10/01 10:55:18;;;;;;;8.35;4.43;;;21.00;99.90;;;;;;5001515;28;20555;-72
2023/10/01 10:57:50;;;;;;;8.40;4.43;;;21.00;99.90;;;;;;5003001;28;20057;-71
2023/10/01 11:00:27;;;;;;;7.90;5.15;;;21.20;99.90;;;;;;4999899;28;20042;-72
2023/10/01 11:02:57;;;;;;;7.40;4.60;;;21.40;99.90;;;;;;5001635;28;20032;-72
2023/10/01 11:05:29;;;;;;;9.88;4.93;;;21.20;99.90;;;;;;4999412;28;20026;-72
2023/10/01 11:08:02;;;;;;;8.02;4.30;;;21.20;99.90;;;;;;4996207;28;20064;-71
2023/10/01 11:10:47;;;;;;;8.13;5.20;;;21.20;99.90;;;;;;4993140;28;20025;-74
2023/10/01 11:13:13;;;;;;;7.28;4.70;;;21.30;99.90;;;;;;4992416;28;20046;-72
2023/10/01 11:15:42;;;;;;;9.13;4.53;;;21.30;99.90;;;;;;4991918;28;20025;-71
2023/10/01 11:18:09;;;;;;;8.82;4.50;;;21.30;99.90;;;;;;4988983;28;20619;-73
2023/10/01 11:20:45;;;;;;;6.63;4.40;;;21.60;99.90;;;;;;4989471;28;20389;-72
2023/10/01 11:23:17;;;;;;;7.55;5.03;;;21.80;99.90;;;;;;4989858;28;20181;-71
2023/10/01 11:25:47;;;;;;;8.63;4.60;;;22.00;99.90;;;;;;4996275;28;20040;-71
2023/10/01 11:28:14;;;;;;;8.52;4.88;;;22.00;99.90;;;;;;5002045;28;20092;-72
2023/10/01 11:30:42;;;;;;;9.75;5.07;;;22.20;99.90;;;;;;4995530;28;20456;-72
2023/10/01 11:35:59;;;;;;;11.27;4.90;;;22.00;99.70;;;;;;5004789;28;20041;-73
2023/10/01 11:38:26;;;;;;;11.63;5.15;;;22.20;99.90;;;;;;4998732;28;20165;-72
2023/10/01 11:41:12;;;;;;;9.35;4.85;;;22.50;99.20;;;;;;5002506;28;20560;-72
2023/10/01 11:43:42;;;;;;;13.20;5.07;;;22.50;99.50;;;;;;5002678;28;20034;-71
2023/10/01 11:46:23;;;;;;;9.38;5.63;;;22.50;99.20;;;;;;5005492;28;20030;-72
2023/10/01 11:51:50;;;;;;;8.43;4.78;;;22.40;99.00;;;;;;4992736;28;20042;-73
2023/10/01 11:54:16;;;;;;;7.85;4.57;;;22.60;99.00;;;;;;4998147;28;20041;-73
2023/10/01 11:56:43;;;;;;;10.80;5.13;;;22.50;98.90;;;;;;5002136;28;20034;-73
2023/10/01 11:59:17;;;;;;;9.40;4.82;;;22.60;98.90;;;;;;4996999;28;20050;-73
2023/10/01 12:01:49;;;;;;;8.10;5.28;;;22.60;99.30;;;;;;5003201;28;20030;-72
2023/10/01 12:04:56;;;;;;;9.68;4.80;;;22.70;99.40;;;;;;4998454;28;20038;-73
2023/10/01 12:07:15;;;;;;;10.13;5.20;;;22.90;99.10;;;;;;5001911;28;20038;-73
2023/10/01 12:09:49;;;;;;;8.80;5.18;;;23.00;99.00;;;;;;5002207;28;20472;-73
2023/10/01 12:12:18;;;;;;;10.02;5.07;;;23.20;98.70;;;;;;5000989;28;20033;-73
2023/10/01 12:15:33;;;;;;;7.95;4.50;;;23.20;98.90;;;;;;4987405;28;22947;-73
2023/10/01 12:17:46;;;;;;;9.50;5.10;;;23.30;99.50;;;;;;4996847;28;20084;-73
2023/10/01 12:20:22;;;;;;;10.15;4.70;;;23.40;98.70;;;;;;5003578;28;20120;-73
2023/10/01 12:23:10;;;;;;;9.43;4.88;;;23.40;97.80;;;;;;4997952;28;20041;-74
2023/10/01 12:26:00;;;;;;;11.00;5.57;;;23.40;98.00;;;;;;4996562;28;20029;-73
2023/10/01 12:28:29;;;;;;;9.48;5.07;;;23.40;98.20;;;;;;5000322;28;20583;-73
2023/10/01 12:30:59;;;;;;;8.88;4.63;;;23.30;98.30;;;;;;4996614;28;20026;-74
2023/10/01 12:33:38;;;;;;;10.48;5.05;;;23.30;98.80;;;;;;4988828;28;20026;-73
2023/10/01 12:36:31;;;;;;;10.70;5.47;;;23.40;98.60;;;;;;4998687;28;20550;-73
2023/10/01 12:41:56;;;;;;;6.93;5.22;;;23.70;98.10;;;;;;4988701;28;20097;-73
2023/10/01 12:44:30;;;;;;;8.75;5.43;;;23.40;97.90;;;;;;5002155;28;20488;-73
2023/10/01 12:47:01;;;;;;;9.40;4.90;;;23.30;97.40;;;;;;4994191;28;20057;-73
2023/10/01 12:49:27;;;;;;;8.55;4.88;;;23.20;97.40;;;;;;4995490;28;20038;-73
2023/10/01 12:51:54;;;;;;;8.68;4.90;;;23.40;97.60;;;;;;4972133;28;20056;-73
2023/10/01 12:54:25;;;;;;;8.95;4.82;;;23.50;98.00;;;;;;4990204;28;20038;-73
2023/10/01 12:57:02;;;;;;;7.55;4.45;;;23.80;97.90;;;;;;4973681;28;20038;-73
2023/10/01 12:59:43;;;;;;;8.05;4.68;;;23.80;97.30;;;;;;4995846;28;20045;-73
2023/10/01 13:02:28;;;;;;;9.48;5.00;;;23.70;97.30;;;;;;4997289;28;20034;-73
2023/10/01 13:07:40;;;;;;;10.88;5.07;;;23.80;97.40;;;;;;4989967;28;20073;-73
2023/10/01 13:10:06;;;;;;;8.10;5.18;;;23.80;97.40;;;;;;4998541;28;20112;-72
2023/10/01 13:12:39;;;;;;;9.38;5.65;;;23.80;97.10;;;;;;4990343;28;20021;-74
2023/10/01 13:15:15;;;;;;;9.95;5.18;;;23.80;97.60;;;;;;4991562;28;20112;-76
2023/10/01 13:17:45;;;;;;;11.77;5.13;;;24.00;96.70;;;;;;4989554;28;20026;-72
2023/10/01 13:20:46;;;;;;;11.02;5.07;;;23.90;96.50;;;;;;4991058;28;20133;-71
2023/10/01 13:23:07;;;;;;;10.18;5.50;;;23.80;97.00;;;;;;4988278;28;20531;-72
2023/10/01 13:25:34;;;;;;;10.68;5.20;;;23.70;97.10;;;;;;4999162;28;20524;-72
2023/10/01 13:28:04;;;;;;;10.13;4.55;;;23.90;97.30;;;;;;4994636;28;20469;-72
2023/10/01 13:30:31;;;;;;;9.30;4.85;;;24.20;96.80;;;;;;4988430;28;20052;-72
2023/10/01 13:33:10;;;;;;;8.32;4.88;;;24.20;96.80;;;;;;4997409;28;20137;-72
2023/10/01 13:35:36;;;;;;;8.13;4.88;;;24.20;96.70;;;;;;4997660;28;20109;-72
2023/10/01 13:38:25;;;;;;;12.50;5.70;;;24.20;96.40;;;;;;4997601;28;20041;-72
2023/10/01 14:08:43;;;;;;;10.23;4.78;;;24.40;96.70;;;;;;5002127;28;20559;-71
2023/10/01 14:11:16;;;;;;;8.00;4.95;;;24.40;96.70;;;;;;4997942;28;20044;-72
2023/10/01 14:13:42;;;;;;;9.50;5.10;;;24.50;96.50;;;;;;4993827;28;20033;-72
2023/10/01 14:16:12;;;;;;;10.25;5.45;;;24.40;97.10;;;;;;4996294;28;20030;-72
2023/10/01 14:18:53;;;;;;;9.40;4.93;;;24.40;96.90;;;;;;4989875;28;20034;-72
2023/10/01 14:21:28;;;;;;;9.20;5.20;;;24.20;96.70;;;;;;4993593;28;20041;-72
2023/10/01 14:23:57;;;;;;;9.48;5.35;;;24.40;97.30;;;;;;4993373;28;20645;-72
2023/10/01 14:26:36;;;;;;;7.93;4.82;;;24.40;96.80;;;;;;4992559;28;20030;-72
2023/10/01 14:29:05;;;;;;;9.00;5.53;;;24.50;96.70;;;;;;4994323;28;20043;-72